createdAt,value
2022-08-25T00:01:54.025Z,20.06
2022-08-25T00:05:57.356Z,20.05
2022-08-25T00:10:01.192Z,20.06
2022-08-25T00:14:11.054Z,20.07
2022-08-25T00:18:19.886Z,20.05
2022-08-25T00:22:24.064Z,20.03
2022-08-25T00:26:27.842Z,20.04
2022-08-25T00:30:33.080Z,20.01
2022-08-25T00:34:39.974Z,19.99
2022-08-25T00:38:45.909Z,19.96
2022-08-25T00:42:49.755Z,19.92
2022-08-25T00:46:56.600Z,19.96
2022-08-25T00:51:00.987Z,19.97
2022-08-25T00:55:08.687Z,20.00
2022-08-25T00:59:17.029Z,20.01
2022-08-25T01:03:25.290Z,20.01
2022-08-25T01:07:38.301Z,19.97
2022-08-25T01:11:43.345Z,19.92
2022-08-25T01:15:47.834Z,19.84
2022-08-25T01:19:53.123Z,19.79
2022-08-25T01:23:59.711Z,19.74
2022-08-25T01:28:03.447Z,19.72
2022-08-25T01:32:09.506Z,19.75
2022-08-25T01:36:13.090Z,19.78
2022-08-25T01:40:18.444Z,19.82
2022-08-25T01:44:21.709Z,19.82
2022-08-25T01:48:27.381Z,19.81
2022-08-25T01:52:34.813Z,19.76
2022-08-25T01:56:40.016Z,19.71
2022-08-25T02:00:47.235Z,19.66
2022-08-25T02:04:50.795Z,19.60
2022-08-25T02:08:56.499Z,19.58
2022-08-25T02:13:01.449Z,19.59
2022-08-25T02:17:06.868Z,19.64
2022-08-25T02:21:11.513Z,19.65
2022-08-25T02:25:16.208Z,19.67
2022-08-25T02:29:21.309Z,19.68
2022-08-25T02:33:24.923Z,19.66
2022-08-25T02:37:28.579Z,19.63
2022-08-25T02:41:31.934Z,19.56
2022-08-25T02:45:37.293Z,19.51
2022-08-25T02:49:40.899Z,19.44
2022-08-25T02:53:47.603Z,19.39
2022-08-25T02:57:51.332Z,19.34
2022-08-25T03:01:56.118Z,19.29
2022-08-25T03:05:59.679Z,19.24
2022-08-25T03:10:07.107Z,19.21
2022-08-25T03:14:11.622Z,19.18
2022-08-25T03:18:16.660Z,19.18
2022-08-25T03:22:21.547Z,19.14
2022-08-25T03:26:43.234Z,19.12
2022-08-25T03:30:46.942Z,19.12
2022-08-25T03:34:59.072Z,19.12
2022-08-25T03:39:02.870Z,19.15
2022-08-25T03:43:06.299Z,19.19
2022-08-25T03:47:09.954Z,19.23
2022-08-25T03:51:20.334Z,19.24
2022-08-25T03:55:25.871Z,19.27
2022-08-25T03:59:29.912Z,19.31
2022-08-25T04:03:33.777Z,19.36
2022-08-25T04:07:41.567Z,19.40
2022-08-25T04:11:45.123Z,19.43
2022-08-25T04:15:49.720Z,19.48
2022-08-25T04:19:52.873Z,19.56
2022-08-25T04:23:59.180Z,19.67
2022-08-25T04:28:02.749Z,19.78
2022-08-25T04:32:06.808Z,19.88
2022-08-25T04:36:13.494Z,19.99
2022-08-25T04:40:18.414Z,20.11
2022-08-25T04:44:22.464Z,20.20
2022-08-25T04:48:26.245Z,20.31
2022-08-25T04:52:29.802Z,20.39
2022-08-25T04:56:35.218Z,20.43
2022-08-25T05:00:39.550Z,20.51
2022-08-25T05:04:43.374Z,20.58
2022-08-25T05:08:47.101Z,20.67
2022-08-25T05:12:52.565Z,20.79
2022-08-25T05:16:57.520Z,20.85
2022-08-25T05:21:04.409Z,20.97
2022-08-25T05:25:09.175Z,21.03
2022-08-25T05:29:14.934Z,21.12
2022-08-25T05:33:18.969Z,21.19
2022-08-25T05:37:22.474Z,21.31
2022-08-25T05:41:30.334Z,21.44
2022-08-25T05:45:35.243Z,21.59
2022-08-25T05:49:38.487Z,21.69
2022-08-25T05:53:44.216Z,21.80
2022-08-25T05:57:47.888Z,21.90
2022-08-25T06:02:10.132Z,22.01
2022-08-25T06:06:14.116Z,22.13
2022-08-25T06:10:19.002Z,22.26
2022-08-25T06:14:22.518Z,22.37
2022-08-25T06:18:27.917Z,22.48
2022-08-25T06:22:30.972Z,22.59
2022-08-25T06:26:35.365Z,22.74
2022-08-25T06:30:41.080Z,22.94
2022-08-25T06:34:46.191Z,23.17
2022-08-25T06:38:50.163Z,23.42
2022-08-25T06:42:53.388Z,23.72
2022-08-25T06:46:57.199Z,24.06
2022-08-25T06:51:02.146Z,24.40
2022-08-25T06:55:07.157Z,24.70
2022-08-25T06:59:11.375Z,25.03
2022-08-25T07:03:15.257Z,25.36
2022-08-25T07:07:20.232Z,25.76
2022-08-25T07:11:24.097Z,26.18
2022-08-25T07:15:28.076Z,26.61
2022-08-25T07:19:31.347Z,26.98
2022-08-25T07:23:36.564Z,27.28
2022-08-25T07:27:42.313Z,27.56
2022-08-25T07:31:46.206Z,27.85
2022-08-25T07:35:50.488Z,28.19
2022-08-25T07:39:56.586Z,28.51
2022-08-25T07:44:00.796Z,28.71
2022-08-25T07:48:07.084Z,28.85
2022-08-25T07:52:10.751Z,29.02
2022-08-25T07:56:17.403Z,29.17
2022-08-25T08:00:22.298Z,29.26
2022-08-25T08:04:28.172Z,29.35
2022-08-25T08:08:32.570Z,29.44
2022-08-25T08:12:38.896Z,29.51
2022-08-25T08:16:41.956Z,29.53
2022-08-25T08:20:46.471Z,29.64
2022-08-25T08:24:54.738Z,29.74
2022-08-25T08:29:02.576Z,29.84
2022-08-25T08:33:11.947Z,29.95
2022-08-25T08:37:16.710Z,30.07
2022-08-25T08:42:11.150Z,30.23
2022-08-25T08:46:18.104Z,30.37
2022-08-25T08:50:32.992Z,30.46
2022-08-25T08:54:41.407Z,30.51
2022-08-25T08:58:50.143Z,30.56
2022-08-25T09:03:02.338Z,30.68
2022-08-25T09:07:14.077Z,30.94
2022-08-25T09:11:30.581Z,31.35
2022-08-25T09:15:58.391Z,31.72
2022-08-25T09:20:31.394Z,32.04
2022-08-25T09:24:50.685Z,32.33
2022-08-25T09:29:01.390Z,32.59
2022-08-25T09:33:05.907Z,32.69
2022-08-25T09:37:10.422Z,32.78
2022-08-25T09:41:19.517Z,32.97
2022-08-25T09:45:35.311Z,33.23
2022-08-25T09:49:41.498Z,33.47
2022-08-25T09:53:53.023Z,33.69
2022-08-25T09:57:58.546Z,33.84
2022-08-25T10:02:04.732Z,34.00
2022-08-25T10:06:13.960Z,34.20
2022-08-25T10:10:24.109Z,34.42
2022-08-25T10:14:35.645Z,34.50
2022-08-25T10:18:40.264Z,34.48
2022-08-25T10:22:48.207Z,34.40
2022-08-25T10:27:02.476Z,34.29
2022-08-25T10:31:17.116Z,34.08
2022-08-25T10:35:24.840Z,33.99
2022-08-25T10:39:40.879Z,33.89
2022-08-25T10:43:54.628Z,33.80
2022-08-25T10:48:44.893Z,33.68
2022-08-25T10:53:09.988Z,33.52
2022-08-25T10:57:23.918Z,33.29
2022-08-25T11:01:43.907Z,33.13
2022-08-25T11:05:53.187Z,33.06
2022-08-25T11:10:01.769Z,33.05
2022-08-25T11:18:35.462Z,32.79
2022-08-25T11:22:43.865Z,32.58
2022-08-25T11:26:58.461Z,32.37
2022-08-25T11:31:04.186Z,32.28
2022-08-25T11:35:14.124Z,32.12
2022-08-25T11:39:24.716Z,32.44
2022-08-25T11:43:41.463Z,32.73
2022-08-25T11:48:02.092Z,32.93
2022-08-25T11:52:30.682Z,32.97
2022-08-25T11:56:42.690Z,33.20
2022-08-25T12:00:46.177Z,33.20
2022-08-25T12:04:53.015Z,32.99
2022-08-25T12:09:22.224Z,33.15
2022-08-25T12:13:30.043Z,33.29
2022-08-25T12:17:40.927Z,33.77
2022-08-25T12:21:44.606Z,34.06
2022-08-25T12:25:56.990Z,34.48
2022-08-25T12:30:06.171Z,34.65
2022-08-25T12:34:29.519Z,34.99
2022-08-25T12:38:42.509Z,35.13
2022-08-25T12:42:48.626Z,35.31
2022-08-25T12:47:09.043Z,35.40
2022-08-25T12:51:20.378Z,35.11
2022-08-25T12:55:30.371Z,34.90
2022-08-25T12:59:38.949Z,34.91
2022-08-25T13:04:09.188Z,34.83
2022-08-25T13:08:44.763Z,34.90
2022-08-25T13:12:57.202Z,34.77
2022-08-25T13:17:03.515Z,34.58
2022-08-25T13:21:15.457Z,34.49
2022-08-25T13:25:23.055Z,34.16
2022-08-25T13:29:51.987Z,33.93
2022-08-25T13:34:00.415Z,34.19
2022-08-25T13:44:13.101Z,34.11
2022-08-25T14:10:01.791Z,34.71
2022-08-25T14:14:08.629Z,34.90
2022-08-25T14:18:17.108Z,35.01
2022-08-25T14:22:24.178Z,35.12
2022-08-25T14:26:28.750Z,35.21
2022-08-25T14:30:33.279Z,35.37
2022-08-25T14:34:39.606Z,35.51
2022-08-25T14:38:47.041Z,35.64
2022-08-25T14:42:58.158Z,35.68
2022-08-25T14:47:03.462Z,35.65
2022-08-25T14:51:09.818Z,35.53
2022-08-25T14:55:30.795Z,35.43
2022-08-25T14:59:35.411Z,35.42
2022-08-25T15:03:41.593Z,35.21
2022-08-25T15:08:03.737Z,35.06
2022-08-25T15:12:10.647Z,34.88
2022-08-25T15:16:35.275Z,34.74
2022-08-25T15:20:42.111Z,34.62
2022-08-25T15:24:45.664Z,34.51
2022-08-25T15:28:52.064Z,34.42
2022-08-25T15:32:56.515Z,34.36
2022-08-25T15:37:01.864Z,34.36
2022-08-25T15:41:06.654Z,34.33
2022-08-25T15:45:14.609Z,34.33
2022-08-25T15:49:20.841Z,34.24
2022-08-25T15:53:27.998Z,34.14
2022-08-25T15:57:31.642Z,33.99
2022-08-25T16:01:37.810Z,33.81
2022-08-25T16:05:48.110Z,33.52
2022-08-25T16:09:52.748Z,33.24
2022-08-25T16:13:58.839Z,32.96
2022-08-25T16:18:05.391Z,32.72
2022-08-25T16:22:11.131Z,32.49
2022-08-25T16:26:14.833Z,32.22
2022-08-25T16:30:18.549Z,31.93
2022-08-25T16:34:24.453Z,31.63
2022-08-25T16:38:27.985Z,31.29
2022-08-25T16:42:31.262Z,30.95
2022-08-25T16:46:36.177Z,30.62
2022-08-25T16:50:41.780Z,30.31
2022-08-25T16:55:02.757Z,29.99
2022-08-25T16:59:07.949Z,29.65
2022-08-25T17:03:11.662Z,29.34
2022-08-25T17:07:16.157Z,29.09
2022-08-25T17:11:30.156Z,28.82
2022-08-25T17:15:35.107Z,28.55
2022-08-25T17:19:39.480Z,28.32
2022-08-25T17:23:46.764Z,28.09
2022-08-25T17:27:50.310Z,27.87
2022-08-25T17:31:53.819Z,27.69
2022-08-25T17:35:58.858Z,27.51
2022-08-25T17:40:04.639Z,27.37
2022-08-25T17:44:09.231Z,27.19
2022-08-25T17:48:14.118Z,27.04
2022-08-25T17:52:19.279Z,26.87
2022-08-25T17:56:28.418Z,26.73
2022-08-25T18:00:33.534Z,26.58
2022-08-25T18:04:39.176Z,26.44
2022-08-25T18:08:44.472Z,26.29
2022-08-25T18:12:58.117Z,26.17
2022-08-25T18:17:04.298Z,26.01
2022-08-25T18:21:12.425Z,25.91
2022-08-25T18:25:17.245Z,25.79
2022-08-25T18:29:22.564Z,25.68
2022-08-25T18:33:26.164Z,25.56
2022-08-25T18:37:51.473Z,25.45
2022-08-25T18:41:56.429Z,25.33
2022-08-25T18:46:02.026Z,25.25
2022-08-25T18:50:09.618Z,25.15
2022-08-25T18:54:23.386Z,25.05
2022-08-25T18:58:28.576Z,24.98
2022-08-25T19:02:34.509Z,24.93
2022-08-25T19:06:38.129Z,24.88
2022-08-25T19:10:43.048Z,24.85
2022-08-25T19:14:47.807Z,24.83
2022-08-25T19:18:52.520Z,24.81
2022-08-25T19:22:55.842Z,24.79
2022-08-25T19:27:03.220Z,24.73
2022-08-25T19:31:08.778Z,24.69
2022-08-25T19:35:20.827Z,24.65
2022-08-25T19:39:26.155Z,24.60
2022-08-25T19:43:30.128Z,24.59
2022-08-25T19:47:34.101Z,24.57
2022-08-25T19:51:41.174Z,24.55
2022-08-25T19:55:48.063Z,24.51
2022-08-25T19:59:52.535Z,24.46
2022-08-25T20:03:55.629Z,24.42
2022-08-25T20:08:02.451Z,24.37
2022-08-25T20:12:06.782Z,24.30
2022-08-25T20:16:12.476Z,24.24
2022-08-25T20:20:20.319Z,24.18
2022-08-25T20:24:42.587Z,24.11
2022-08-25T20:28:47.118Z,24.02
2022-08-25T20:32:50.993Z,23.96
2022-08-25T20:36:54.337Z,23.88
2022-08-25T20:40:59.438Z,23.82
2022-08-25T20:45:03.256Z,23.74
2022-08-25T20:49:06.485Z,23.69
2022-08-25T20:53:13.438Z,23.64
2022-08-25T20:57:19.443Z,23.60
2022-08-25T21:01:39.687Z,23.57
2022-08-25T21:05:46.011Z,23.53
2022-08-25T21:09:50.653Z,23.48
2022-08-25T21:13:58.298Z,23.45
2022-08-25T21:18:02.708Z,23.42
2022-08-25T21:22:06.569Z,23.40
2022-08-25T21:26:14.047Z,23.39
2022-08-25T21:30:19.164Z,23.37
2022-08-25T21:34:23.031Z,23.33
2022-08-25T21:38:27.434Z,23.30
2022-08-25T21:42:31.271Z,23.27
2022-08-25T21:46:37.462Z,23.24
2022-08-25T21:50:40.852Z,23.18
2022-08-25T21:54:45.486Z,23.12
2022-08-25T21:58:49.932Z,23.09
2022-08-25T22:02:55.207Z,23.06
2022-08-25T22:06:59.142Z,23.05
2022-08-25T22:11:03.720Z,23.02
2022-08-25T22:15:08.314Z,23.01
2022-08-25T22:19:18.038Z,22.99
2022-08-25T22:23:21.719Z,22.95
2022-08-25T22:27:32.918Z,22.89
2022-08-25T22:31:37.590Z,22.85
2022-08-25T22:35:43.104Z,22.78
2022-08-25T22:39:47.542Z,22.73
2022-08-25T22:43:53.007Z,22.70
2022-08-25T22:47:56.597Z,22.66
2022-08-25T22:52:01.232Z,22.64
2022-08-25T22:56:05.375Z,22.60
2022-08-25T23:00:13.449Z,22.57
2022-08-25T23:04:17.560Z,22.50
2022-08-25T23:08:31.121Z,22.48
2022-08-25T23:12:44.212Z,22.53
2022-08-25T23:16:48.193Z,22.54
2022-08-25T23:21:10.846Z,22.54
2022-08-25T23:25:17.201Z,22.56
2022-08-25T23:29:22.541Z,22.58
2022-08-25T23:33:29.181Z,22.60
2022-08-25T23:37:32.783Z,22.61
2022-08-25T23:41:38.131Z,22.59
2022-08-25T23:45:41.784Z,22.54
2022-08-25T23:49:45.356Z,22.48
2022-08-25T23:53:49.568Z,22.42
2022-08-25T23:57:54.667Z,22.37
